KSOP/SOP METAR and TAF weather

Enter ICAO airport designator
Station Type Date Time Source
KSOP METAR 2019/10/23 01:56 UTC NOAA

KSOP 230156Z AUTO 25004KT 10SM BKN043 18/14 A2991 RMK AO2 SLP130 T01780139


Station Type Date Time Source
KSOP Decoded METAR 2019/10/23 01:56 UTC NOAA

Pinehurst/Southern Pines, Moore County Airport, NC, United States (KSOP) 35-14N 079-24W
Oct 22, 2019 - 09:56 PM EDT / 2019.10.23 0156 UTC
Wind: from the WSW (250 degrees) at 5 MPH (4 KT):0
Visibility: 10 mile(s):0
Sky conditions: mostly cloudy
Temperature: 64.0 F (17.8 C)
Dew Point: 57.0 F (13.9 C)
Relative Humidity: 77%
Pressure (altimeter): 29.91 in. Hg (1012 hPa)
ob: KSOP 230156Z AUTO 25004KT 10SM BKN043 18/14 A2991 RMK AO2 SLP130 T01780139
cycle: 2

Station Type Date Time Source
KSOP TAF UTC NOAA

Error!

Example: see airport list